createdAt,value
2019-02-21T00:03:35.909Z,62.90
2019-02-21T00:07:40.661Z,62.90
2019-02-21T00:11:45.524Z,63.30
2019-02-21T00:15:50.269Z,63.40
2019-02-21T00:19:55.193Z,63.10
2019-02-21T00:24:00.008Z,63.80
2019-02-21T00:28:05.097Z,63.30
2019-02-21T00:32:09.960Z,63.40
2019-02-21T00:36:14.715Z,63.80
2019-02-21T00:40:19.649Z,64.10
2019-02-21T00:44:24.387Z,64.20
2019-02-21T00:48:29.212Z,63.70
2019-02-21T00:52:34.168Z,63.60
2019-02-21T00:56:38.993Z,63.70
2019-02-21T01:00:46.724Z,63.80
2019-02-21T01:04:50.412Z,64.10
2019-02-21T01:08:55.268Z,64.00
2019-02-21T01:13:00.359Z,64.40
2019-02-21T01:17:05.301Z,64.80
2019-02-21T01:21:11.197Z,65.80
2019-02-21T01:25:15.939Z,66.70
2019-02-21T01:29:20.756Z,66.80
2019-02-21T01:33:25.580Z,67.30
2019-02-21T01:37:30.310Z,67.20
2019-02-21T01:41:35.417Z,67.40
2019-02-21T01:45:40.310Z,67.50
2019-02-21T01:49:45.115Z,68.50
2019-02-21T01:53:49.859Z,67.60
2019-02-21T01:57:54.601Z,67.10
2019-02-21T02:01:59.581Z,66.90
2019-02-21T02:06:04.531Z,66.40
2019-02-21T02:10:10.042Z,67.50
2019-02-21T02:14:14.859Z,67.20
2019-02-21T02:18:19.781Z,67.20
2019-02-21T02:22:24.779Z,67.70
2019-02-21T02:26:29.702Z,67.80
2019-02-21T02:30:34.815Z,68.00
2019-02-21T02:34:39.626Z,68.30
2019-02-21T02:38:44.467Z,69.50
2019-02-21T02:42:49.440Z,69.00
2019-02-21T02:46:54.306Z,68.40
2019-02-21T02:50:59.216Z,68.80
2019-02-21T02:55:04.285Z,68.60
2019-02-21T02:59:09.182Z,69.00
2019-02-21T03:03:14.021Z,69.00
2019-02-21T03:07:18.839Z,69.00
2019-02-21T03:11:23.790Z,67.90
2019-02-21T03:15:28.609Z,67.50
2019-02-21T03:19:33.629Z,67.60
2019-02-21T03:23:38.492Z,67.10
2019-02-21T03:27:43.393Z,67.10
2019-02-21T03:31:54.170Z,66.50
2019-02-21T03:35:54.661Z,66.50
2019-02-21T03:40:00.683Z,67.00
2019-02-21T03:44:05.519Z,68.00
2019-02-21T03:48:10.384Z,69.00
2019-02-21T03:52:15.203Z,69.30
2019-02-21T03:56:20.085Z,69.00
2019-02-21T04:00:25.261Z,69.00
2019-02-21T04:04:30.152Z,68.90
2019-02-21T04:08:34.954Z,68.60
2019-02-21T04:12:40.013Z,67.80
2019-02-21T04:16:44.981Z,67.60
2019-02-21T04:20:50.015Z,67.70
2019-02-21T04:24:54.736Z,68.00
2019-02-21T04:28:59.484Z,67.80
2019-02-21T04:33:04.601Z,67.50
2019-02-21T04:37:09.412Z,67.40
2019-02-21T04:41:14.508Z,67.40
2019-02-21T04:45:19.248Z,67.10
2019-02-21T04:49:24.172Z,67.80
2019-02-21T04:53:28.919Z,67.90
2019-02-21T04:57:33.660Z,67.60
2019-02-21T05:01:40.351Z,67.20
2019-02-21T05:05:45.337Z,67.50
2019-02-21T05:09:57.928Z,67.40
2019-02-21T05:13:57.910Z,68.80
2019-02-21T05:18:02.759Z,69.40
2019-02-21T05:22:07.737Z,70.10
2019-02-21T05:26:15.491Z,69.20
2019-02-21T05:30:23.150Z,69.40
2019-02-21T05:34:41.509Z,69.90
2019-02-21T05:39:18.455Z,69.90
2019-02-21T05:43:40.966Z,70.30
2019-02-21T05:48:10.776Z,71.00
2019-02-21T05:52:23.145Z,70.80
2019-02-21T05:56:52.811Z,70.00
2019-02-21T06:01:03.633Z,69.20
2019-02-21T06:05:30.258Z,68.70
2019-02-21T06:10:01.141Z,68.10
2019-02-21T06:14:24.083Z,68.90
2019-02-21T06:18:47.017Z,68.70
2019-02-21T06:23:09.720Z,68.90
2019-02-21T06:27:45.506Z,68.30
2019-02-21T06:31:50.314Z,67.40
2019-02-21T06:35:55.288Z,67.00
2019-02-21T06:40:02.476Z,66.60
2019-02-21T06:44:07.338Z,66.20
2019-02-21T06:48:12.095Z,65.80
2019-02-21T06:52:16.948Z,65.60
2019-02-21T06:56:21.726Z,65.60
2019-02-21T07:00:26.608Z,65.50
2019-02-21T07:04:33.302Z,65.90
2019-02-21T07:08:40.041Z,66.40
2019-02-21T07:12:44.541Z,66.20
2019-02-21T07:16:49.269Z,66.30
2019-02-21T07:20:54.092Z,66.40
2019-02-21T07:25:04.157Z,66.60
2019-02-21T07:29:08.896Z,68.00
2019-02-21T07:33:14.004Z,67.50
2019-02-21T07:37:19.203Z,68.00
2019-02-21T07:41:24.448Z,67.80
2019-02-21T07:45:29.248Z,68.00
2019-02-21T07:49:34.116Z,67.80
2019-02-21T07:53:38.843Z,67.80
2019-02-21T07:57:43.580Z,67.60
2019-02-21T08:01:49.295Z,66.30
2019-02-21T08:05:54.090Z,67.10
2019-02-21T08:09:59.128Z,67.20
2019-02-21T08:14:04.350Z,66.50
2019-02-21T08:18:09.229Z,65.50
2019-02-21T08:22:13.982Z,64.50
2019-02-21T08:26:20.085Z,63.90
2019-02-21T08:30:28.997Z,64.40
2019-02-21T08:34:37.059Z,63.20
2019-02-21T08:38:41.788Z,63.40
2019-02-21T08:42:46.623Z,62.40
2019-02-21T08:46:53.392Z,62.80
2019-02-21T08:50:57.799Z,63.00
2019-02-21T08:55:02.534Z,62.40
2019-02-21T08:59:07.288Z,63.00
2019-02-21T09:03:12.480Z,62.70
2019-02-21T09:07:17.300Z,62.20
2019-02-21T09:11:22.369Z,62.30
2019-02-21T09:15:27.256Z,60.80
2019-02-21T09:19:32.169Z,61.00
2019-02-21T09:23:36.969Z,62.30
2019-02-21T09:27:41.791Z,61.50
2019-02-21T09:31:46.621Z,61.80
2019-02-21T09:35:51.417Z,60.40
2019-02-21T09:39:56.179Z,60.20
2019-02-21T09:44:00.917Z,60.20
2019-02-21T09:48:05.657Z,60.40
2019-02-21T09:52:10.392Z,60.00
2019-02-21T09:56:15.128Z,59.60
2019-02-21T10:00:20.390Z,59.10
2019-02-21T10:04:32.103Z,59.40
2019-02-21T10:08:31.645Z,59.40
2019-02-21T10:12:36.584Z,59.00
2019-02-21T10:16:41.338Z,59.30
2019-02-21T10:20:46.241Z,59.50
2019-02-21T10:24:51.360Z,58.60
2019-02-21T10:28:57.272Z,59.40
2019-02-21T10:33:02.104Z,59.70
2019-02-21T10:37:06.889Z,59.00
2019-02-21T10:41:11.668Z,59.30
2019-02-21T10:45:17.661Z,58.10
2019-02-21T10:49:22.578Z,58.30
2019-02-21T10:53:27.324Z,58.20
2019-02-21T10:57:32.168Z,59.00
2019-02-21T11:01:36.908Z,58.20
2019-02-21T11:05:41.727Z,57.90
2019-02-21T11:09:46.548Z,57.00
2019-02-21T11:13:51.386Z,58.60
2019-02-21T11:17:56.208Z,58.10
2019-02-21T11:22:01.047Z,57.60
2019-02-21T11:26:06.527Z,57.70
2019-02-21T11:30:14.039Z,57.50
2019-02-21T11:34:21.495Z,57.20
2019-02-21T11:38:26.309Z,57.50
2019-02-21T11:42:31.324Z,56.30
2019-02-21T11:46:36.065Z,56.90
2019-02-21T11:50:40.811Z,56.00
2019-02-21T11:54:45.552Z,55.60
2019-02-21T11:58:52.589Z,55.70
2019-02-21T12:02:57.507Z,55.00
2019-02-21T12:07:02.306Z,55.60
2019-02-21T12:11:07.140Z,55.40
2019-02-21T12:15:13.444Z,55.40
2019-02-21T12:19:18.189Z,54.00
2019-02-21T12:23:23.119Z,54.20
2019-02-21T12:27:27.849Z,54.10
2019-02-21T12:31:32.616Z,53.20
2019-02-21T12:35:37.506Z,52.80
2019-02-21T12:39:42.275Z,52.90
2019-02-21T12:43:47.014Z,54.60
2019-02-21T12:47:53.821Z,54.50
2019-02-21T12:51:58.178Z,53.00
2019-02-21T12:56:02.950Z,52.40
2019-02-21T13:00:11.595Z,53.20
2019-02-21T13:04:16.340Z,51.70
2019-02-21T13:08:21.205Z,51.60
2019-02-21T13:12:25.963Z,51.10
2019-02-21T13:16:31.081Z,51.60
2019-02-21T13:20:35.848Z,51.50
2019-02-21T13:24:40.673Z,52.50
2019-02-21T13:28:45.493Z,50.30
2019-02-21T13:32:50.221Z,49.20
2019-02-21T13:36:55.110Z,48.90
2019-02-21T13:40:59.879Z,49.60
2019-02-21T13:45:05.052Z,49.90
2019-02-21T13:49:09.868Z,50.00
2019-02-21T13:53:14.600Z,49.80
2019-02-21T13:57:19.351Z,49.30
2019-02-21T14:01:24.173Z,49.00
2019-02-21T14:05:28.908Z,49.20
2019-02-21T14:09:33.660Z,48.90
2019-02-21T14:13:38.389Z,48.80
2019-02-21T14:17:43.193Z,48.30
2019-02-21T14:21:47.953Z,48.10
2019-02-21T14:25:52.695Z,49.30
2019-02-21T14:29:57.497Z,48.10
2019-02-21T14:34:02.333Z,48.80
2019-02-21T14:38:07.188Z,47.70
2019-02-21T14:42:11.947Z,47.10
2019-02-21T14:46:16.703Z,47.50
2019-02-21T14:50:21.524Z,47.90
2019-02-21T14:54:26.373Z,48.20
2019-02-21T14:58:31.099Z,47.20
2019-02-21T15:02:35.867Z,46.10
2019-02-21T15:06:40.673Z,44.20
2019-02-21T15:10:45.453Z,43.70
2019-02-21T15:14:50.248Z,43.40
2019-02-21T15:18:55.413Z,42.60
2019-02-21T15:23:00.616Z,42.20
2019-02-21T15:27:08.555Z,42.50
2019-02-21T15:31:11.951Z,43.80
2019-02-21T15:35:19.273Z,44.00
2019-02-21T15:39:23.265Z,43.80
2019-02-21T15:43:28.191Z,44.60
2019-02-21T15:47:33.017Z,45.30
2019-02-21T15:51:37.789Z,45.40
2019-02-21T15:55:42.531Z,45.70
2019-02-21T15:59:47.339Z,45.80
2019-02-21T16:03:52.061Z,45.70
2019-02-21T16:07:57.040Z,45.80
2019-02-21T16:12:01.945Z,45.90
2019-02-21T16:16:07.008Z,45.70
2019-02-21T16:20:13.077Z,45.80
2019-02-21T16:24:19.009Z,46.10
2019-02-21T16:28:24.711Z,46.60
2019-02-21T16:32:29.541Z,47.00
2019-02-21T16:36:34.384Z,46.20
2019-02-21T16:40:39.231Z,47.20
2019-02-21T16:44:44.030Z,47.20
2019-02-21T16:48:48.768Z,47.20
2019-02-21T16:52:53.532Z,47.80
2019-02-21T16:56:58.348Z,46.80
2019-02-21T17:01:03.103Z,47.30
2019-02-21T17:05:08.456Z,46.70
2019-02-21T17:09:13.624Z,46.30
2019-02-21T17:13:18.471Z,46.90
2019-02-21T17:17:23.224Z,47.30
2019-02-21T17:21:28.349Z,46.90
2019-02-21T17:25:33.099Z,46.80
2019-02-21T17:29:37.822Z,47.00
2019-02-21T17:33:42.875Z,47.00
2019-02-21T17:37:47.696Z,46.80
2019-02-21T17:41:53.727Z,47.00
2019-02-21T17:45:58.456Z,47.60
2019-02-21T17:50:03.736Z,48.50
2019-02-21T17:54:09.770Z,47.60
2019-02-21T17:58:17.110Z,47.40
2019-02-21T18:02:21.356Z,47.00
2019-02-21T18:06:26.208Z,46.90
2019-02-21T18:10:31.002Z,46.80
2019-02-21T18:14:35.816Z,47.30
2019-02-21T18:18:40.640Z,47.20
2019-02-21T18:22:45.534Z,47.10
2019-02-21T18:26:50.298Z,47.10
2019-02-21T18:30:55.182Z,46.80
2019-02-21T18:35:00.310Z,46.50
2019-02-21T18:39:08.056Z,47.60
2019-02-21T18:43:13.375Z,49.20
2019-02-21T18:47:18.192Z,50.20
2019-02-21T18:51:23.194Z,50.10
2019-02-21T18:55:28.023Z,50.40
2019-02-21T18:59:32.835Z,51.60
2019-02-21T19:03:38.825Z,52.40
2019-02-21T19:07:43.792Z,52.80
2019-02-21T19:11:48.601Z,52.90
2019-02-21T19:15:55.055Z,52.80
2019-02-21T19:19:59.863Z,53.40
2019-02-21T19:24:04.757Z,53.80
2019-02-21T19:28:09.551Z,54.30
2019-02-21T19:32:16.668Z,54.70
2019-02-21T19:36:21.844Z,55.10
2019-02-21T19:40:28.324Z,55.90
2019-02-21T19:44:33.437Z,55.70
2019-02-21T19:48:38.573Z,55.90
2019-02-21T19:52:43.543Z,56.10
2019-02-21T19:56:48.681Z,56.50
2019-02-21T20:00:54.507Z,57.00
2019-02-21T20:04:59.707Z,56.90
2019-02-21T20:09:06.479Z,58.10
2019-02-21T20:13:15.161Z,58.40
2019-02-21T20:17:20.376Z,58.50
2019-02-21T20:21:25.316Z,58.50
2019-02-21T20:25:31.160Z,58.60
2019-02-21T20:29:36.634Z,59.00
2019-02-21T20:33:41.589Z,59.50
2019-02-21T20:37:46.496Z,59.30
2019-02-21T20:41:51.465Z,59.80
2019-02-21T20:45:56.361Z,60.70
2019-02-21T20:50:01.385Z,60.70
2019-02-21T20:54:06.236Z,61.40
2019-02-21T20:58:11.855Z,61.20
2019-02-21T21:02:17.020Z,61.30
2019-02-21T21:06:22.008Z,60.50
2019-02-21T21:10:27.108Z,60.30
2019-02-21T21:14:32.097Z,60.40
2019-02-21T21:18:37.147Z,61.10
2019-02-21T21:22:42.452Z,62.10
2019-02-21T21:26:47.231Z,63.40
2019-02-21T21:30:52.320Z,63.30
2019-02-21T21:34:57.068Z,63.00
2019-02-21T21:39:01.952Z,63.10
2019-02-21T21:43:08.508Z,63.70
2019-02-21T21:47:13.233Z,63.60
2019-02-21T21:51:18.223Z,63.70
2019-02-21T21:55:23.101Z,63.80
2019-02-21T21:59:27.915Z,64.30
2019-02-21T22:03:33.050Z,64.60
2019-02-21T22:07:37.893Z,63.70
2019-02-21T22:11:42.785Z,62.60
2019-02-21T22:15:47.663Z,61.90
2019-02-21T22:19:52.944Z,61.40
2019-02-21T22:23:57.757Z,61.00
2019-02-21T22:28:02.560Z,61.50
2019-02-21T22:32:07.653Z,62.00
2019-02-21T22:36:12.544Z,61.90
2019-02-21T22:40:17.674Z,62.40
2019-02-21T22:44:22.501Z,61.70
2019-02-21T22:48:27.316Z,62.90
2019-02-21T22:52:32.313Z,62.90
2019-02-21T22:56:37.363Z,62.90
2019-02-21T23:00:59.024Z,62.90
2019-02-21T23:05:45.328Z,63.40
2019-02-21T23:09:51.692Z,63.50
2019-02-21T23:13:56.896Z,63.50
2019-02-21T23:18:01.848Z,63.40
2019-02-21T23:22:06.804Z,63.00
2019-02-21T23:26:12.044Z,62.50
2019-02-21T23:30:17.105Z,63.40
2019-02-21T23:34:32.815Z,64.70
2019-02-21T23:38:37.547Z,63.30
2019-02-21T23:42:42.660Z,62.90
2019-02-21T23:46:48.339Z,62.80
2019-02-21T23:50:53.283Z,62.50
2019-02-21T23:54:58.185Z,62.50
2019-02-21T23:59:02.921Z,62.50
